sensor_id;sensor_type;location;lat;lon;timestamp;temperature;humidity
74511;DHT22;62991;50.040;18.400;2023-11-18T00:02:16;3.90;76.10
74511;DHT22;62991;50.040;18.400;2023-11-18T00:05:17;3.70;77.40
74511;DHT22;62991;50.040;18.400;2023-11-18T00:08:18;3.80;78.00
74511;DHT22;62991;50.040;18.400;2023-11-18T00:11:18;3.80;77.70
74511;DHT22;62991;50.040;18.400;2023-11-18T00:14:19;3.70;77.80
74511;DHT22;62991;50.040;18.400;2023-11-18T00:17:21;3.70;77.40
74511;DHT22;62991;50.040;18.400;2023-11-18T00:20:22;3.80;77.80
74511;DHT22;62991;50.040;18.400;2023-11-18T00:23:24;3.60;78.30
74511;DHT22;62991;50.040;18.400;2023-11-18T00:26:27;3.70;78.20
74511;DHT22;62991;50.040;18.400;2023-11-18T00:29:27;3.70;78.10
74511;DHT22;62991;50.040;18.400;2023-11-18T00:32:28;3.70;78.10
74511;DHT22;62991;50.040;18.400;2023-11-18T00:35:29;3.50;78.90
74511;DHT22;62991;50.040;18.400;2023-11-18T00:38:32;3.60;78.40
74511;DHT22;62991;50.040;18.400;2023-11-18T00:41:33;3.60;78.40
74511;DHT22;62991;50.040;18.400;2023-11-18T00:44:33;3.70;77.70
74511;DHT22;62991;50.040;18.400;2023-11-18T00:47:34;3.70;78.10
74511;DHT22;62991;50.040;18.400;2023-11-18T00:50:35;3.70;77.90
74511;DHT22;62991;50.040;18.400;2023-11-18T00:53:36;3.80;78.00
74511;DHT22;62991;50.040;18.400;2023-11-18T00:56:36;3.80;77.90
74511;DHT22;62991;50.040;18.400;2023-11-18T00:59:41;3.80;77.40
74511;DHT22;62991;50.040;18.400;2023-11-18T01:02:43;3.70;78.20
74511;DHT22;62991;50.040;18.400;2023-11-18T01:05:43;3.70;78.50
74511;DHT22;62991;50.040;18.400;2023-11-18T01:08:45;3.70;78.70
74511;DHT22;62991;50.040;18.400;2023-11-18T01:11:46;3.60;79.40
74511;DHT22;62991;50.040;18.400;2023-11-18T01:14:47;3.50;79.80
74511;DHT22;62991;50.040;18.400;2023-11-18T01:17:48;3.70;79.90
74511;DHT22;62991;50.040;18.400;2023-11-18T01:20:49;3.70;79.50
74511;DHT22;62991;50.040;18.400;2023-11-18T01:23:49;3.60;79.80
74511;DHT22;62991;50.040;18.400;2023-11-18T01:26:51;3.80;79.90
74511;DHT22;62991;50.040;18.400;2023-11-18T01:29:51;3.90;79.30
74511;DHT22;62991;50.040;18.400;2023-11-18T01:32:53;3.80;79.40
74511;DHT22;62991;50.040;18.400;2023-11-18T01:35:53;3.80;79.80
74511;DHT22;62991;50.040;18.400;2023-11-18T01:38:55;3.90;79.50
74511;DHT22;62991;50.040;18.400;2023-11-18T01:41:56;4.10;78.80
74511;DHT22;62991;50.040;18.400;2023-11-18T01:44:59;4.00;79.50
74511;DHT22;62991;50.040;18.400;2023-11-18T01:48:04;3.90;79.10
74511;DHT22;62991;50.040;18.400;2023-11-18T01:51:07;3.80;79.70
74511;DHT22;62991;50.040;18.400;2023-11-18T01:54:09;3.90;80.20
74511;DHT22;62991;50.040;18.400;2023-11-18T01:57:15;3.90;79.70
74511;DHT22;62991;50.040;18.400;2023-11-18T02:00:16;4.00;80.00
74511;DHT22;62991;50.040;18.400;2023-11-18T02:03:18;3.90;79.20
74511;DHT22;62991;50.040;18.400;2023-11-18T02:06:18;3.90;80.00
74511;DHT22;62991;50.040;18.400;2023-11-18T02:09:22;3.70;80.30
74511;DHT22;62991;50.040;18.400;2023-11-18T02:12:55;3.60;80.40
74511;DHT22;62991;50.040;18.400;2023-11-18T02:15:59;3.60;80.40
74511;DHT22;62991;50.040;18.400;2023-11-18T02:19:01;3.60;80.60
74511;DHT22;62991;50.040;18.400;2023-11-18T02:22:05;3.60;80.40
74511;DHT22;62991;50.040;18.400;2023-11-18T02:25:09;3.60;80.70
74511;DHT22;62991;50.040;18.400;2023-11-18T02:28:11;3.70;80.60
74511;DHT22;62991;50.040;18.400;2023-11-18T02:31:16;3.60;80.90
74511;DHT22;62991;50.040;18.400;2023-11-18T02:34:27;3.80;80.30
74511;DHT22;62991;50.040;18.400;2023-11-18T02:37:29;3.90;80.40
74511;DHT22;62991;50.040;18.400;2023-11-18T02:40:36;3.90;79.50
74511;DHT22;62991;50.040;18.400;2023-11-18T02:43:40;3.80;79.90
74511;DHT22;62991;50.040;18.400;2023-11-18T02:46:41;3.60;80.10
74511;DHT22;62991;50.040;18.400;2023-11-18T02:49:44;3.60;80.70
74511;DHT22;62991;50.040;18.400;2023-11-18T02:52:44;3.60;80.40
74511;DHT22;62991;50.040;18.400;2023-11-18T02:55:45;3.60;79.60
74511;DHT22;62991;50.040;18.400;2023-11-18T02:58:46;3.70;79.60
74511;DHT22;62991;50.040;18.400;2023-11-18T03:01:47;3.70;79.50
74511;DHT22;62991;50.040;18.400;2023-11-18T03:04:48;3.70;79.70
74511;DHT22;62991;50.040;18.400;2023-11-18T03:07:49;3.60;80.10
74511;DHT22;62991;50.040;18.400;2023-11-18T03:10:51;3.70;80.40
74511;DHT22;62991;50.040;18.400;2023-11-18T03:13:52;3.70;80.40
74511;DHT22;62991;50.040;18.400;2023-11-18T03:16:53;3.70;80.40
74511;DHT22;62991;50.040;18.400;2023-11-18T03:19:56;3.80;80.70
74511;DHT22;62991;50.040;18.400;2023-11-18T03:22:59;3.80;80.10
74511;DHT22;62991;50.040;18.400;2023-11-18T03:26:01;3.40;79.90
74511;DHT22;62991;50.040;18.400;2023-11-18T03:29:01;3.40;81.30
74511;DHT22;62991;50.040;18.400;2023-11-18T03:32:02;3.50;80.50
74511;DHT22;62991;50.040;18.400;2023-11-18T03:35:06;3.40;81.00
74511;DHT22;62991;50.040;18.400;2023-11-18T03:38:09;3.50;81.00
74511;DHT22;62991;50.040;18.400;2023-11-18T03:41:09;3.30;80.80
74511;DHT22;62991;50.040;18.400;2023-11-18T03:44:12;3.10;81.50
74511;DHT22;62991;50.040;18.400;2023-11-18T03:47:13;3.00;82.20
74511;DHT22;62991;50.040;18.400;2023-11-18T03:50:14;2.90;82.90
74511;DHT22;62991;50.040;18.400;2023-11-18T03:53:15;2.80;83.20
74511;DHT22;62991;50.040;18.400;2023-11-18T03:56:18;2.80;83.30
74511;DHT22;62991;50.040;18.400;2023-11-18T03:59:19;3.00;83.10
74511;DHT22;62991;50.040;18.400;2023-11-18T04:02:20;2.80;83.60
74511;DHT22;62991;50.040;18.400;2023-11-18T04:05:21;2.80;83.60
74511;DHT22;62991;50.040;18.400;2023-11-18T04:08:22;3.00;83.50
74511;DHT22;62991;50.040;18.400;2023-11-18T04:11:22;3.10;83.00
74511;DHT22;62991;50.040;18.400;2023-11-18T04:14:24;3.10;83.10
74511;DHT22;62991;50.040;18.400;2023-11-18T04:17:26;3.00;83.00
74511;DHT22;62991;50.040;18.400;2023-11-18T04:20:28;3.00;83.60
74511;DHT22;62991;50.040;18.400;2023-11-18T04:23:29;3.10;83.50
74511;DHT22;62991;50.040;18.400;2023-11-18T04:26:31;3.10;83.70
74511;DHT22;62991;50.040;18.400;2023-11-18T04:29:32;3.10;83.40
74511;DHT22;62991;50.040;18.400;2023-11-18T04:32:33;3.20;83.60
74511;DHT22;62991;50.040;18.400;2023-11-18T04:35:34;3.30;83.50
74511;DHT22;62991;50.040;18.400;2023-11-18T04:38:36;3.20;83.70
74511;DHT22;62991;50.040;18.400;2023-11-18T04:41:37;3.40;83.90
74511;DHT22;62991;50.040;18.400;2023-11-18T04:44:37;3.30;83.50
74511;DHT22;62991;50.040;18.400;2023-11-18T04:47:39;3.40;83.10
74511;DHT22;62991;50.040;18.400;2023-11-18T04:50:41;3.40;83.50
74511;DHT22;62991;50.040;18.400;2023-11-18T04:53:42;3.30;83.00
74511;DHT22;62991;50.040;18.400;2023-11-18T04:56:43;3.30;83.10
74511;DHT22;62991;50.040;18.400;2023-11-18T04:59:44;3.30;82.70
74511;DHT22;62991;50.040;18.400;2023-11-18T05:02:45;3.30;82.60
74511;DHT22;62991;50.040;18.400;2023-11-18T05:05:49;3.20;83.30
74511;DHT22;62991;50.040;18.400;2023-11-18T05:08:50;3.20;82.70
74511;DHT22;62991;50.040;18.400;2023-11-18T05:11:50;3.30;82.90
74511;DHT22;62991;50.040;18.400;2023-11-18T05:14:51;3.30;82.70
74511;DHT22;62991;50.040;18.400;2023-11-18T05:17:53;3.10;83.20
74511;DHT22;62991;50.040;18.400;2023-11-18T05:20:53;3.20;83.20
74511;DHT22;62991;50.040;18.400;2023-11-18T05:23:54;3.10;83.20
74511;DHT22;62991;50.040;18.400;2023-11-18T05:26:55;3.20;83.40
74511;DHT22;62991;50.040;18.400;2023-11-18T05:29:56;3.20;82.80
74511;DHT22;62991;50.040;18.400;2023-11-18T05:33:02;3.30;83.20
74511;DHT22;62991;50.040;18.400;2023-11-18T05:36:05;3.10;83.80
74511;DHT22;62991;50.040;18.400;2023-11-18T05:39:06;3.10;83.70
74511;DHT22;62991;50.040;18.400;2023-11-18T05:42:09;3.10;83.20
74511;DHT22;62991;50.040;18.400;2023-11-18T05:45:11;2.90;83.90
74511;DHT22;62991;50.040;18.400;2023-11-18T05:48:17;2.90;84.60
74511;DHT22;62991;50.040;18.400;2023-11-18T05:51:26;3.00;84.50
74511;DHT22;62991;50.040;18.400;2023-11-18T05:54:27;2.90;84.20
74511;DHT22;62991;50.040;18.400;2023-11-18T05:57:27;2.90;83.90
74511;DHT22;62991;50.040;18.400;2023-11-18T06:00:28;2.90;84.00
74511;DHT22;62991;50.040;18.400;2023-11-18T06:03:31;3.00;83.90
74511;DHT22;62991;50.040;18.400;2023-11-18T06:06:31;3.10;83.80
74511;DHT22;62991;50.040;18.400;2023-11-18T06:09:32;3.10;83.90
74511;DHT22;62991;50.040;18.400;2023-11-18T06:12:33;3.20;83.80
74511;DHT22;62991;50.040;18.400;2023-11-18T06:15:34;3.10;83.20
74511;DHT22;62991;50.040;18.400;2023-11-18T06:18:37;3.10;83.40
74511;DHT22;62991;50.040;18.400;2023-11-18T06:21:38;3.10;82.90
74511;DHT22;62991;50.040;18.400;2023-11-18T06:24:38;2.90;83.00
74511;DHT22;62991;50.040;18.400;2023-11-18T06:27:39;3.00;83.20
74511;DHT22;62991;50.040;18.400;2023-11-18T06:30:40;2.90;83.50
74511;DHT22;62991;50.040;18.400;2023-11-18T06:33:46;2.90;82.70
74511;DHT22;62991;50.040;18.400;2023-11-18T06:36:48;3.00;82.80
74511;DHT22;62991;50.040;18.400;2023-11-18T06:39:48;2.80;82.40
74511;DHT22;62991;50.040;18.400;2023-11-18T06:42:49;2.70;82.40
74511;DHT22;62991;50.040;18.400;2023-11-18T06:45:50;2.50;82.20
74511;DHT22;62991;50.040;18.400;2023-11-18T06:48:53;2.40;83.00
74511;DHT22;62991;50.040;18.400;2023-11-18T06:51:54;2.50;83.00
74511;DHT22;62991;50.040;18.400;2023-11-18T06:54:55;2.50;82.50
74511;DHT22;62991;50.040;18.400;2023-11-18T06:57:56;2.40;82.50
74511;DHT22;62991;50.040;18.400;2023-11-18T07:00:57;2.50;82.70
74511;DHT22;62991;50.040;18.400;2023-11-18T07:03:58;2.50;82.90
74511;DHT22;62991;50.040;18.400;2023-11-18T07:06:59;2.60;82.40
74511;DHT22;62991;50.040;18.400;2023-11-18T07:09:59;2.70;81.90
74511;DHT22;62991;50.040;18.400;2023-11-18T07:13:00;2.80;81.70
74511;DHT22;62991;50.040;18.400;2023-11-18T07:16:01;2.80;81.70
74511;DHT22;62991;50.040;18.400;2023-11-18T07:19:03;2.90;81.90
74511;DHT22;62991;50.040;18.400;2023-11-18T07:22:04;2.90;81.50
74511;DHT22;62991;50.040;18.400;2023-11-18T07:25:07;2.90;81.80
74511;DHT22;62991;50.040;18.400;2023-11-18T07:28:09;3.00;82.20
74511;DHT22;62991;50.040;18.400;2023-11-18T07:31:10;3.20;81.60
74511;DHT22;62991;50.040;18.400;2023-11-18T07:34:11;3.20;81.30
74511;DHT22;62991;50.040;18.400;2023-11-18T07:37:11;3.30;81.70
74511;DHT22;62991;50.040;18.400;2023-11-18T07:40:13;3.40;81.20
74511;DHT22;62991;50.040;18.400;2023-11-18T07:43:15;3.50;80.90
74511;DHT22;62991;50.040;18.400;2023-11-18T07:46:16;3.40;80.80
74511;DHT22;62991;50.040;18.400;2023-11-18T07:49:17;3.40;80.80
74511;DHT22;62991;50.040;18.400;2023-11-18T07:52:17;3.40;81.20
74511;DHT22;62991;50.040;18.400;2023-11-18T07:55:18;3.50;80.90
74511;DHT22;62991;50.040;18.400;2023-11-18T07:58:19;3.50;80.90
74511;DHT22;62991;50.040;18.400;2023-11-18T08:01:20;3.50;80.80
74511;DHT22;62991;50.040;18.400;2023-11-18T08:04:24;3.60;80.80
74511;DHT22;62991;50.040;18.400;2023-11-18T08:07:26;3.50;80.60
74511;DHT22;62991;50.040;18.400;2023-11-18T08:10:26;3.40;80.90
74511;DHT22;62991;50.040;18.400;2023-11-18T08:13:29;3.30;81.60
74511;DHT22;62991;50.040;18.400;2023-11-18T08:16:29;3.30;81.20
74511;DHT22;62991;50.040;18.400;2023-11-18T08:19:31;3.40;80.90
74511;DHT22;62991;50.040;18.400;2023-11-18T08:22:31;3.30;81.10
74511;DHT22;62991;50.040;18.400;2023-11-18T08:25:32;3.30;81.50
74511;DHT22;62991;50.040;18.400;2023-11-18T08:28:36;3.30;81.50
74511;DHT22;62991;50.040;18.400;2023-11-18T08:31:38;3.40;80.90
74511;DHT22;62991;50.040;18.400;2023-11-18T08:34:40;3.50;80.70
74511;DHT22;62991;50.040;18.400;2023-11-18T08:37:41;3.50;80.90
74511;DHT22;62991;50.040;18.400;2023-11-18T08:40:43;3.40;80.70
74511;DHT22;62991;50.040;18.400;2023-11-18T08:43:45;3.50;81.00
74511;DHT22;62991;50.040;18.400;2023-11-18T08:46:51;3.60;80.50
74511;DHT22;62991;50.040;18.400;2023-11-18T08:49:52;3.60;80.50
74511;DHT22;62991;50.040;18.400;2023-11-18T08:52:53;3.50;80.60
74511;DHT22;62991;50.040;18.400;2023-11-18T08:55:58;3.40;80.80
74511;DHT22;62991;50.040;18.400;2023-11-18T08:58:59;3.50;80.90
74511;DHT22;62991;50.040;18.400;2023-11-18T09:02:00;3.60;81.10
74511;DHT22;62991;50.040;18.400;2023-11-18T09:05:06;3.70;80.40
74511;DHT22;62991;50.040;18.400;2023-11-18T09:08:13;3.60;79.80
74511;DHT22;62991;50.040;18.400;2023-11-18T09:11:14;3.60;80.00
74511;DHT22;62991;50.040;18.400;2023-11-18T09:14:15;3.60;79.80
74511;DHT22;62991;50.040;18.400;2023-11-18T09:17:16;3.50;80.30
74511;DHT22;62991;50.040;18.400;2023-11-18T09:20:16;3.50;80.30
74511;DHT22;62991;50.040;18.400;2023-11-18T09:23:22;3.60;80.10
74511;DHT22;62991;50.040;18.400;2023-11-18T09:26:27;3.40;80.30
74511;DHT22;62991;50.040;18.400;2023-11-18T09:29:30;3.60;80.70
74511;DHT22;62991;50.040;18.400;2023-11-18T09:32:31;3.60;80.00
74511;DHT22;62991;50.040;18.400;2023-11-18T09:35:34;3.40;80.20
74511;DHT22;62991;50.040;18.400;2023-11-18T09:38:36;3.60;79.80
74511;DHT22;62991;50.040;18.400;2023-11-18T09:41:36;3.70;79.50
74511;DHT22;62991;50.040;18.400;2023-11-18T09:44:37;3.50;79.30
74511;DHT22;62991;50.040;18.400;2023-11-18T09:47:43;3.50;79.50
74511;DHT22;62991;50.040;18.400;2023-11-18T09:50:48;3.40;79.90
74511;DHT22;62991;50.040;18.400;2023-11-18T09:53:52;3.40;80.70
74511;DHT22;62991;50.040;18.400;2023-11-18T09:57:08;3.50;80.70
74511;DHT22;62991;50.040;18.400;2023-11-18T10:00:16;3.60;80.60
74511;DHT22;62991;50.040;18.400;2023-11-18T10:03:32;3.60;80.40
74511;DHT22;62991;50.040;18.400;2023-11-18T10:06:36;3.70;80.60
74511;DHT22;62991;50.040;18.400;2023-11-18T10:09:39;3.50;80.30
74511;DHT22;62991;50.040;18.400;2023-11-18T10:12:45;3.40;80.90
74511;DHT22;62991;50.040;18.400;2023-11-18T10:15:46;3.50;81.00
74511;DHT22;62991;50.040;18.400;2023-11-18T10:18:48;3.50;80.60
74511;DHT22;62991;50.040;18.400;2023-11-18T10:21:51;3.60;80.30
74511;DHT22;62991;50.040;18.400;2023-11-18T10:24:52;3.50;80.20
74511;DHT22;62991;50.040;18.400;2023-11-18T10:27:56;3.40;80.40
74511;DHT22;62991;50.040;18.400;2023-11-18T10:34:04;3.40;80.20
74511;DHT22;62991;50.040;18.400;2023-11-18T10:37:05;3.40;80.40
74511;DHT22;62991;50.040;18.400;2023-11-18T10:40:07;3.40;80.40
74511;DHT22;62991;50.040;18.400;2023-11-18T10:43:09;3.50;80.90
74511;DHT22;62991;50.040;18.400;2023-11-18T10:46:11;3.70;80.80
74511;DHT22;62991;50.040;18.400;2023-11-18T10:49:12;3.80;80.10
74511;DHT22;62991;50.040;18.400;2023-11-18T10:52:13;4.00;80.10
74511;DHT22;62991;50.040;18.400;2023-11-18T10:55:14;4.10;79.10
74511;DHT22;62991;50.040;18.400;2023-11-18T10:58:19;4.20;78.80
74511;DHT22;62991;50.040;18.400;2023-11-18T11:01:33;4.20;78.80
74511;DHT22;62991;50.040;18.400;2023-11-18T11:04:43;4.20;79.10
74511;DHT22;62991;50.040;18.400;2023-11-18T11:07:45;3.90;78.30
74511;DHT22;62991;50.040;18.400;2023-11-18T11:10:46;3.70;79.90
74511;DHT22;62991;50.040;18.400;2023-11-18T11:13:50;3.60;80.30
74511;DHT22;62991;50.040;18.400;2023-11-18T11:16:55;3.60;80.20
74511;DHT22;62991;50.040;18.400;2023-11-18T11:20:06;3.60;79.90
74511;DHT22;62991;50.040;18.400;2023-11-18T11:23:34;3.20;79.50
74511;DHT22;62991;50.040;18.400;2023-11-18T11:26:55;3.10;79.70
74511;DHT22;62991;50.040;18.400;2023-11-18T11:30:07;3.00;78.90
74511;DHT22;62991;50.040;18.400;2023-11-18T11:36:42;3.10;78.30
74511;DHT22;62991;50.040;18.400;2023-11-18T11:39:43;3.20;76.90
74511;DHT22;62991;50.040;18.400;2023-11-18T11:42:52;3.00;77.30
74511;DHT22;62991;50.040;18.400;2023-11-18T11:45:55;3.10;76.90
74511;DHT22;62991;50.040;18.400;2023-11-18T11:48:56;3.20;77.40
74511;DHT22;62991;50.040;18.400;2023-11-18T11:52:15;3.20;76.50
74511;DHT22;62991;50.040;18.400;2023-11-18T11:55:36;3.20;77.50
74511;DHT22;62991;50.040;18.400;2023-11-18T11:58:39;3.00;77.40
74511;DHT22;62991;50.040;18.400;2023-11-18T12:01:43;3.10;77.60
74511;DHT22;62991;50.040;18.400;2023-11-18T12:04:49;3.00;78.00
74511;DHT22;62991;50.040;18.400;2023-11-18T12:07:53;3.00;77.70
74511;DHT22;62991;50.040;18.400;2023-11-18T12:10:56;3.00;77.90
74511;DHT22;62991;50.040;18.400;2023-11-18T12:14:08;3.10;77.70
74511;DHT22;62991;50.040;18.400;2023-11-18T12:17:24;3.10;77.80
74511;DHT22;62991;50.040;18.400;2023-11-18T12:20:42;3.10;77.30
74511;DHT22;62991;50.040;18.400;2023-11-18T12:24:15;3.00;77.50
74511;DHT22;62991;50.040;18.400;2023-11-18T12:30:42;3.10;77.30
74511;DHT22;62991;50.040;18.400;2023-11-18T12:36:56;3.20;76.80
74511;DHT22;62991;50.040;18.400;2023-11-18T12:47:08;3.20;76.10
74511;DHT22;62991;50.040;18.400;2023-11-18T12:50:16;3.20;76.50
74511;DHT22;62991;50.040;18.400;2023-11-18T12:53:25;3.30;76.80
74511;DHT22;62991;50.040;18.400;2023-11-18T12:56:26;3.30;76.80
74511;DHT22;62991;50.040;18.400;2023-11-18T12:59:29;3.30;76.40
74511;DHT22;62991;50.040;18.400;2023-11-18T13:02:31;3.20;76.70
74511;DHT22;62991;50.040;18.400;2023-11-18T13:05:32;3.30;76.80
74511;DHT22;62991;50.040;18.400;2023-11-18T13:08:33;3.30;76.90
74511;DHT22;62991;50.040;18.400;2023-11-18T13:11:34;3.40;76.40
74511;DHT22;62991;50.040;18.400;2023-11-18T13:14:35;3.60;76.50
74511;DHT22;62991;50.040;18.400;2023-11-18T13:17:36;3.60;75.50
74511;DHT22;62991;50.040;18.400;2023-11-18T13:20:38;3.60;75.90
74511;DHT22;62991;50.040;18.400;2023-11-18T13:23:39;3.70;75.70
74511;DHT22;62991;50.040;18.400;2023-11-18T13:26:42;3.80;74.90
74511;DHT22;62991;50.040;18.400;2023-11-18T13:29:47;3.70;75.20
74511;DHT22;62991;50.040;18.400;2023-11-18T13:32:55;3.80;75.00
74511;DHT22;62991;50.040;18.400;2023-11-18T13:35:56;3.80;74.80
74511;DHT22;62991;50.040;18.400;2023-11-18T13:38:59;3.90;75.20
74511;DHT22;62991;50.040;18.400;2023-11-18T13:42:26;3.90;75.10
74511;DHT22;62991;50.040;18.400;2023-11-18T13:45:28;3.90;74.60
74511;DHT22;62991;50.040;18.400;2023-11-18T13:48:31;3.90;75.00
74511;DHT22;62991;50.040;18.400;2023-11-18T13:51:34;3.90;75.20
74511;DHT22;62991;50.040;18.400;2023-11-18T13:54:37;3.80;75.40
74511;DHT22;62991;50.040;18.400;2023-11-18T13:57:39;3.90;75.40
74511;DHT22;62991;50.040;18.400;2023-11-18T14:00:40;3.90;74.90
74511;DHT22;62991;50.040;18.400;2023-11-18T14:03:41;4.00;75.10
74511;DHT22;62991;50.040;18.400;2023-11-18T14:06:44;4.10;75.00
74511;DHT22;62991;50.040;18.400;2023-11-18T14:09:44;4.20;74.80
74511;DHT22;62991;50.040;18.400;2023-11-18T14:12:59;4.10;74.60
74511;DHT22;62991;50.040;18.400;2023-11-18T14:16:01;4.00;74.70
74511;DHT22;62991;50.040;18.400;2023-11-18T14:19:02;4.10;74.60
74511;DHT22;62991;50.040;18.400;2023-11-18T14:22:06;4.10;75.10
74511;DHT22;62991;50.040;18.400;2023-11-18T14:25:07;4.00;74.40
74511;DHT22;62991;50.040;18.400;2023-11-18T14:28:08;3.80;75.00
74511;DHT22;62991;50.040;18.400;2023-11-18T14:31:11;3.80;75.40
74511;DHT22;62991;50.040;18.400;2023-11-18T14:34:13;3.80;75.30
74511;DHT22;62991;50.040;18.400;2023-11-18T14:37:14;3.90;75.20
74511;DHT22;62991;50.040;18.400;2023-11-18T14:40:15;3.70;75.40
74511;DHT22;62991;50.040;18.400;2023-11-18T14:43:16;3.60;75.50
74511;DHT22;62991;50.040;18.400;2023-11-18T14:46:17;3.40;75.90
74511;DHT22;62991;50.040;18.400;2023-11-18T14:49:18;3.70;75.40
74511;DHT22;62991;50.040;18.400;2023-11-18T14:52:19;3.70;75.40
74511;DHT22;62991;50.040;18.400;2023-11-18T14:55:20;3.80;75.30
74511;DHT22;62991;50.040;18.400;2023-11-18T14:58:20;3.70;74.90
74511;DHT22;62991;50.040;18.400;2023-11-18T15:01:21;3.70;75.50
74511;DHT22;62991;50.040;18.400;2023-11-18T15:04:22;3.70;75.20
74511;DHT22;62991;50.040;18.400;2023-11-18T15:07:24;3.70;75.60
74511;DHT22;62991;50.040;18.400;2023-11-18T15:10:26;3.80;75.20
74511;DHT22;62991;50.040;18.400;2023-11-18T15:13:27;3.90;75.20
74511;DHT22;62991;50.040;18.400;2023-11-18T15:16:28;3.90;74.60
74511;DHT22;62991;50.040;18.400;2023-11-18T15:19:29;3.90;74.50
74511;DHT22;62991;50.040;18.400;2023-11-18T15:22:29;3.90;74.60
74511;DHT22;62991;50.040;18.400;2023-11-18T15:25:30;3.90;74.30
74511;DHT22;62991;50.040;18.400;2023-11-18T15:28:31;3.90;73.90
74511;DHT22;62991;50.040;18.400;2023-11-18T15:31:32;3.90;73.70
74511;DHT22;62991;50.040;18.400;2023-11-18T15:34:32;3.80;73.90
74511;DHT22;62991;50.040;18.400;2023-11-18T15:37:33;3.70;73.80
74511;DHT22;62991;50.040;18.400;2023-11-18T15:40:35;3.70;73.50
74511;DHT22;62991;50.040;18.400;2023-11-18T15:43:37;3.70;73.60
74511;DHT22;62991;50.040;18.400;2023-11-18T15:46:37;3.60;73.40
74511;DHT22;62991;50.040;18.400;2023-11-18T15:49:38;3.60;73.60
74511;DHT22;62991;50.040;18.400;2023-11-18T15:52:39;3.60;73.40
74511;DHT22;62991;50.040;18.400;2023-11-18T15:55:40;3.60;73.90
74511;DHT22;62991;50.040;18.400;2023-11-18T15:58:43;3.60;72.30
74511;DHT22;62991;50.040;18.400;2023-11-18T16:01:43;3.50;72.40
74511;DHT22;62991;50.040;18.400;2023-11-18T16:04:44;3.30;72.90
74511;DHT22;62991;50.040;18.400;2023-11-18T16:07:45;3.40;73.40
74511;DHT22;62991;50.040;18.400;2023-11-18T16:10:46;3.40;73.00
74511;DHT22;62991;50.040;18.400;2023-11-18T16:13:47;3.30;73.60
74511;DHT22;62991;50.040;18.400;2023-11-18T16:16:47;3.40;73.50
74511;DHT22;62991;50.040;18.400;2023-11-18T16:19:48;3.50;73.30
74511;DHT22;62991;50.040;18.400;2023-11-18T16:22:50;3.60;73.20
74511;DHT22;62991;50.040;18.400;2023-11-18T16:25:51;3.60;73.10
74511;DHT22;62991;50.040;18.400;2023-11-18T16:28:52;3.60;73.30
74511;DHT22;62991;50.040;18.400;2023-11-18T16:31:52;3.70;73.00
74511;DHT22;62991;50.040;18.400;2023-11-18T16:34:53;3.70;72.40
74511;DHT22;62991;50.040;18.400;2023-11-18T16:37:54;3.80;72.60
74511;DHT22;62991;50.040;18.400;2023-11-18T16:40:55;3.80;72.70
74511;DHT22;62991;50.040;18.400;2023-11-18T16:43:58;3.90;72.30
74511;DHT22;62991;50.040;18.400;2023-11-18T16:46:59;3.80;72.40
74511;DHT22;62991;50.040;18.400;2023-11-18T16:49:59;3.80;72.10
74511;DHT22;62991;50.040;18.400;2023-11-18T16:53:00;3.80;71.70
74511;DHT22;62991;50.040;18.400;2023-11-18T16:56:05;3.70;71.80
74511;DHT22;62991;50.040;18.400;2023-11-18T16:59:05;3.70;71.90
74511;DHT22;62991;50.040;18.400;2023-11-18T17:02:06;3.80;71.50
74511;DHT22;62991;50.040;18.400;2023-11-18T17:05:07;3.90;71.10
74511;DHT22;62991;50.040;18.400;2023-11-18T17:08:08;4.00;70.80
74511;DHT22;62991;50.040;18.400;2023-11-18T17:11:08;4.00;70.50
74511;DHT22;62991;50.040;18.400;2023-11-18T17:14:09;4.00;70.50
74511;DHT22;62991;50.040;18.400;2023-11-18T17:17:10;4.10;70.20
74511;DHT22;62991;50.040;18.400;2023-11-18T17:20:13;3.90;70.50
74511;DHT22;62991;50.040;18.400;2023-11-18T17:23:14;3.70;71.40
74511;DHT22;62991;50.040;18.400;2023-11-18T17:26:15;3.50;71.40
74511;DHT22;62991;50.040;18.400;2023-11-18T17:29:16;3.40;71.90
74511;DHT22;62991;50.040;18.400;2023-11-18T17:32:17;3.50;71.70
74511;DHT22;62991;50.040;18.400;2023-11-18T17:35:17;3.50;71.60
74511;DHT22;62991;50.040;18.400;2023-11-18T17:38:20;3.70;71.60
74511;DHT22;62991;50.040;18.400;2023-11-18T17:41:21;3.60;71.20
74511;DHT22;62991;50.040;18.400;2023-11-18T17:44:22;3.60;71.60
74511;DHT22;62991;50.040;18.400;2023-11-18T17:47:23;3.60;71.80
74511;DHT22;62991;50.040;18.400;2023-11-18T17:50:27;3.70;71.60
74511;DHT22;62991;50.040;18.400;2023-11-18T17:53:28;3.90;71.30
74511;DHT22;62991;50.040;18.400;2023-11-18T17:56:28;4.20;70.50
74511;DHT22;62991;50.040;18.400;2023-11-18T17:59:29;4.00;70.70
74511;DHT22;62991;50.040;18.400;2023-11-18T18:02:30;4.00;70.80
74511;DHT22;62991;50.040;18.400;2023-11-18T18:05:30;3.80;70.80
74511;DHT22;62991;50.040;18.400;2023-11-18T18:08:31;3.80;71.50
74511;DHT22;62991;50.040;18.400;2023-11-18T18:11:34;4.10;70.40
74511;DHT22;62991;50.040;18.400;2023-11-18T18:14:35;4.30;69.40
74511;DHT22;62991;50.040;18.400;2023-11-18T18:17:36;4.20;69.10
74511;DHT22;62991;50.040;18.400;2023-11-18T18:20:37;4.20;68.90
74511;DHT22;62991;50.040;18.400;2023-11-18T18:23:38;4.20;68.70
74511;DHT22;62991;50.040;18.400;2023-11-18T18:26:40;4.30;68.80
74511;DHT22;62991;50.040;18.400;2023-11-18T18:29:40;4.30;68.90
74511;DHT22;62991;50.040;18.400;2023-11-18T18:32:41;4.40;68.60
74511;DHT22;62991;50.040;18.400;2023-11-18T18:35:42;4.30;68.50
74511;DHT22;62991;50.040;18.400;2023-11-18T18:38:46;4.40;68.20
74511;DHT22;62991;50.040;18.400;2023-11-18T18:41:50;4.40;68.20
74511;DHT22;62991;50.040;18.400;2023-11-18T18:44:50;4.40;67.70
74511;DHT22;62991;50.040;18.400;2023-11-18T18:47:54;4.40;67.80
74511;DHT22;62991;50.040;18.400;2023-11-18T18:50:55;4.40;67.60
74511;DHT22;62991;50.040;18.400;2023-11-18T18:53:57;4.40;67.70
74511;DHT22;62991;50.040;18.400;2023-11-18T18:56:58;4.50;67.20
74511;DHT22;62991;50.040;18.400;2023-11-18T18:59:59;4.50;67.10
74511;DHT22;62991;50.040;18.400;2023-11-18T19:02:59;4.40;67.20
74511;DHT22;62991;50.040;18.400;2023-11-18T19:06:00;4.30;67.60
74511;DHT22;62991;50.040;18.400;2023-11-18T19:09:01;4.30;67.60
74511;DHT22;62991;50.040;18.400;2023-11-18T19:12:02;4.20;67.50
74511;DHT22;62991;50.040;18.400;2023-11-18T19:15:04;4.30;67.50
74511;DHT22;62991;50.040;18.400;2023-11-18T19:18:05;4.30;67.40
74511;DHT22;62991;50.040;18.400;2023-11-18T19:21:06;4.30;67.50
74511;DHT22;62991;50.040;18.400;2023-11-18T19:24:08;4.30;67.50
74511;DHT22;62991;50.040;18.400;2023-11-18T19:27:09;4.20;67.40
74511;DHT22;62991;50.040;18.400;2023-11-18T19:30:12;4.00;68.00
74511;DHT22;62991;50.040;18.400;2023-11-18T19:33:12;4.00;68.30